sensor_id;sensor_type;location;lat;lon;timestamp;pressure;altitude;pressure_sealevel;temperature;humidity
73692;BME280;61996;49.910;35.562;2023-02-01T00:02:10;98560.28;;;20.50;41.21
73692;BME280;61996;49.910;35.562;2023-02-01T00:05:13;98555.50;;;20.46;40.35
73692;BME280;61996;49.910;35.562;2023-02-01T00:08:17;98561.13;;;20.43;39.28
73692;BME280;61996;49.910;35.562;2023-02-01T00:11:20;98561.69;;;20.38;40.09
73692;BME280;61996;49.910;35.562;2023-02-01T00:14:23;98569.50;;;20.40;39.31
73692;BME280;61996;49.910;35.562;2023-02-01T00:17:26;98556.66;;;20.35;39.33
73692;BME280;61996;49.910;35.562;2023-02-01T00:20:29;98563.38;;;20.31;39.76
73692;BME280;61996;49.910;35.562;2023-02-01T00:23:34;98564.22;;;20.23;38.65
73692;BME280;61996;49.910;35.562;2023-02-01T00:26:38;98561.91;;;20.20;38.81
73692;BME280;61996;49.910;35.562;2023-02-01T00:29:41;98556.44;;;20.14;38.14
73692;BME280;61996;49.910;35.562;2023-02-01T00:32:44;98553.09;;;20.12;38.67
73692;BME280;61996;49.910;35.562;2023-02-01T00:35:47;98558.31;;;20.05;38.74
73692;BME280;61996;49.910;35.562;2023-02-01T00:38:51;98553.97;;;20.04;38.53
73692;BME280;61996;49.910;35.562;2023-02-01T00:41:54;98546.00;;;19.96;38.37
73692;BME280;61996;49.910;35.562;2023-02-01T00:44:56;98549.66;;;20.03;38.34
73692;BME280;61996;49.910;35.562;2023-02-01T00:47:59;98544.16;;;19.96;38.43
73692;BME280;61996;49.910;35.562;2023-02-01T00:51:03;98554.16;;;19.94;38.34
73692;BME280;61996;49.910;35.562;2023-02-01T00:54:07;98548.84;;;19.86;38.51
73692;BME280;61996;49.910;35.562;2023-02-01T00:57:10;98548.03;;;19.86;38.43
73692;BME280;61996;49.910;35.562;2023-02-01T01:00:13;98545.34;;;19.86;38.29
73692;BME280;61996;49.910;35.562;2023-02-01T01:03:16;98539.03;;;19.79;38.29
73692;BME280;61996;49.910;35.562;2023-02-01T01:06:24;98541.22;;;19.75;38.47
73692;BME280;61996;49.910;35.562;2023-02-01T01:09:29;98544.03;;;19.74;38.24
73692;BME280;61996;49.910;35.562;2023-02-01T01:12:31;98544.41;;;19.70;38.37
73692;BME280;61996;49.910;35.562;2023-02-01T01:15:35;98535.25;;;19.65;38.28
73692;BME280;61996;49.910;35.562;2023-02-01T01:18:38;98535.59;;;19.62;38.56
73692;BME280;61996;49.910;35.562;2023-02-01T01:21:41;98538.41;;;19.60;38.50
73692;BME280;61996;49.910;35.562;2023-02-01T01:24:45;98542.41;;;19.56;38.51
73692;BME280;61996;49.910;35.562;2023-02-01T01:27:48;98533.91;;;19.53;38.54
73692;BME280;61996;49.910;35.562;2023-02-01T01:30:51;98530.75;;;19.49;38.35
73692;BME280;61996;49.910;35.562;2023-02-01T01:33:55;98515.06;;;19.46;38.47
73692;BME280;61996;49.910;35.562;2023-02-01T01:36:58;98519.44;;;19.47;38.32
73692;BME280;61996;49.910;35.562;2023-02-01T01:40:02;98518.28;;;19.41;38.06
73692;BME280;61996;49.910;35.562;2023-02-01T01:43:10;98512.78;;;19.35;38.28
73692;BME280;61996;49.910;35.562;2023-02-01T01:46:16;98514.44;;;19.36;38.26
73692;BME280;61996;49.910;35.562;2023-02-01T01:49:19;98505.94;;;19.32;38.20
73692;BME280;61996;49.910;35.562;2023-02-01T01:52:23;98509.13;;;19.28;38.25
73692;BME280;61996;49.910;35.562;2023-02-01T01:55:27;98502.28;;;19.25;38.20
73692;BME280;61996;49.910;35.562;2023-02-01T01:58:31;98507.78;;;19.24;38.39
73692;BME280;61996;49.910;35.562;2023-02-01T02:01:35;98504.97;;;19.17;38.31
73692;BME280;61996;49.910;35.562;2023-02-01T02:04:38;98508.81;;;19.14;38.35
73692;BME280;61996;49.910;35.562;2023-02-01T02:07:42;98500.28;;;19.11;38.35
73692;BME280;61996;49.910;35.562;2023-02-01T02:10:47;98506.44;;;19.11;38.29
73692;BME280;61996;49.910;35.562;2023-02-01T02:14:02;98503.97;;;19.10;38.52
73692;BME280;61996;49.910;35.562;2023-02-01T02:17:11;98499.47;;;19.10;38.41
73692;BME280;61996;49.910;35.562;2023-02-01T02:27:07;98511.63;;;19.05;38.34
73692;BME280;61996;49.910;35.562;2023-02-01T02:30:34;98508.94;;;19.05;38.25
73692;BME280;61996;49.910;35.562;2023-02-01T02:33:43;98509.31;;;19.02;38.38
73692;BME280;61996;49.910;35.562;2023-02-01T02:36:54;98505.28;;;18.98;38.40
73692;BME280;61996;49.910;35.562;2023-02-01T02:40:00;98512.13;;;19.00;38.31
73692;BME280;61996;49.910;35.562;2023-02-01T02:43:09;98519.44;;;18.98;38.37
73692;BME280;61996;49.910;35.562;2023-02-01T02:46:32;98516.13;;;18.96;38.34
73692;BME280;61996;49.910;35.562;2023-02-01T02:49:58;98511.81;;;18.95;38.36
73692;BME280;61996;49.910;35.562;2023-02-01T02:53:23;98518.31;;;18.93;38.16
73692;BME280;61996;49.910;35.562;2023-02-01T02:56:46;98517.47;;;18.92;38.43
73692;BME280;61996;49.910;35.562;2023-02-01T03:00:09;98512.47;;;18.89;38.35
73692;BME280;61996;49.910;35.562;2023-02-01T03:03:30;98515.97;;;19.06;38.19
73692;BME280;61996;49.910;35.562;2023-02-01T03:06:52;98508.13;;;19.04;37.77
73692;BME280;61996;49.910;35.562;2023-02-01T03:09:56;98512.31;;;19.07;37.66
73692;BME280;61996;49.910;35.562;2023-02-01T03:13:00;98512.47;;;19.13;37.62
73692;BME280;61996;49.910;35.562;2023-02-01T03:16:06;98510.44;;;19.24;37.56
73692;BME280;61996;49.910;35.562;2023-02-01T03:19:11;98509.09;;;19.36;37.16
73692;BME280;61996;49.910;35.562;2023-02-01T03:22:18;98504.59;;;19.44;37.19
73692;BME280;61996;49.910;35.562;2023-02-01T03:25:24;98510.44;;;19.48;37.09
73692;BME280;61996;49.910;35.562;2023-02-01T03:28:28;98504.41;;;19.54;37.01
73692;BME280;61996;49.910;35.562;2023-02-01T03:31:33;98506.09;;;19.63;36.77
73692;BME280;61996;49.910;35.562;2023-02-01T03:34:36;98499.91;;;19.63;36.86
73692;BME280;61996;49.910;35.562;2023-02-01T03:37:40;98499.88;;;19.71;36.54
73692;BME280;61996;49.910;35.562;2023-02-01T03:40:44;98492.34;;;19.75;36.49
73692;BME280;61996;49.910;35.562;2023-02-01T03:43:51;98496.88;;;19.74;36.46
73692;BME280;61996;49.910;35.562;2023-02-01T03:46:56;98498.00;;;19.80;36.26
73692;BME280;61996;49.910;35.562;2023-02-01T03:50:01;98504.88;;;19.82;36.34
73692;BME280;61996;49.910;35.562;2023-02-01T03:53:06;98492.34;;;19.83;36.31
73692;BME280;61996;49.910;35.562;2023-02-01T03:56:11;98500.50;;;19.89;36.04
73692;BME280;61996;49.910;35.562;2023-02-01T03:59:14;98505.00;;;19.89;36.51
73692;BME280;61996;49.910;35.562;2023-02-01T04:02:17;98505.13;;;19.95;36.03
73692;BME280;61996;49.910;35.562;2023-02-01T04:05:20;98512.47;;;19.93;36.42
73692;BME280;61996;49.910;35.562;2023-02-01T04:08:25;98506.97;;;19.95;36.36
73692;BME280;61996;49.910;35.562;2023-02-01T04:11:28;98510.31;;;19.97;36.28
73692;BME280;61996;49.910;35.562;2023-02-01T04:14:30;98512.63;;;20.00;36.26
73692;BME280;61996;49.910;35.562;2023-02-01T04:17:34;98515.78;;;19.95;36.26
73692;BME280;61996;49.910;35.562;2023-02-01T04:20:36;98517.63;;;20.03;36.02
73692;BME280;61996;49.910;35.562;2023-02-01T04:23:40;98512.28;;;20.03;36.14
73692;BME280;61996;49.910;35.562;2023-02-01T04:26:43;98517.94;;;20.00;36.30
73692;BME280;61996;49.910;35.562;2023-02-01T04:29:46;98514.97;;;20.03;36.01
73692;BME280;61996;49.910;35.562;2023-02-01T04:32:51;98520.44;;;20.02;36.20
73692;BME280;61996;49.910;35.562;2023-02-01T04:35:53;98524.06;;;20.09;35.90
73692;BME280;61996;49.910;35.562;2023-02-01T04:38:58;98523.44;;;20.07;36.04
73692;BME280;61996;49.910;35.562;2023-02-01T04:42:00;98530.97;;;20.03;36.64
73692;BME280;61996;49.910;35.562;2023-02-01T04:45:04;98532.44;;;20.06;36.64
73692;BME280;61996;49.910;35.562;2023-02-01T04:48:07;98536.13;;;20.05;36.44
73692;BME280;61996;49.910;35.562;2023-02-01T04:51:10;98537.78;;;20.06;36.34
73692;BME280;61996;49.910;35.562;2023-02-01T04:54:14;98541.94;;;20.08;36.33
73692;BME280;61996;49.910;35.562;2023-02-01T04:57:17;98541.09;;;20.08;36.19
73692;BME280;61996;49.910;35.562;2023-02-01T05:00:20;98548.78;;;20.11;36.37
73692;BME280;61996;49.910;35.562;2023-02-01T05:03:23;98551.28;;;20.12;36.34
73692;BME280;61996;49.910;35.562;2023-02-01T05:06:26;98551.91;;;20.14;36.01
73692;BME280;61996;49.910;35.562;2023-02-01T05:09:31;98553.94;;;20.12;36.34
73692;BME280;61996;49.910;35.562;2023-02-01T05:12:33;98557.59;;;20.19;35.98
73692;BME280;61996;49.910;35.562;2023-02-01T05:15:54;98561.09;;;20.20;35.91
73692;BME280;61996;49.910;35.562;2023-02-01T05:18:57;98554.91;;;20.19;36.08
73692;BME280;61996;49.910;35.562;2023-02-01T05:22:00;98561.91;;;20.20;36.05
73692;BME280;61996;49.910;35.562;2023-02-01T05:25:04;98564.25;;;20.15;36.14
73692;BME280;61996;49.910;35.562;2023-02-01T05:28:08;98556.94;;;20.17;35.82
73692;BME280;61996;49.910;35.562;2023-02-01T05:31:11;98563.75;;;20.20;35.97
73692;BME280;61996;49.910;35.562;2023-02-01T05:34:14;98574.06;;;20.23;36.06
73692;BME280;61996;49.910;35.562;2023-02-01T05:37:17;98568.59;;;20.24;35.84
73692;BME280;61996;49.910;35.562;2023-02-01T05:40:21;98571.06;;;20.26;36.08
73692;BME280;61996;49.910;35.562;2023-02-01T05:43:25;98577.56;;;20.23;35.97
73692;BME280;61996;49.910;35.562;2023-02-01T05:46:27;98578.91;;;20.27;35.68
73692;BME280;61996;49.910;35.562;2023-02-01T05:49:30;98575.22;;;20.29;35.99
73692;BME280;61996;49.910;35.562;2023-02-01T05:52:33;98589.09;;;20.24;36.04
73692;BME280;61996;49.910;35.562;2023-02-01T05:55:37;98591.47;;;20.19;36.03
73692;BME280;61996;49.910;35.562;2023-02-01T05:58:40;98581.97;;;20.08;36.12
73692;BME280;61996;49.910;35.562;2023-02-01T06:01:43;98586.31;;;20.01;36.22
73692;BME280;61996;49.910;35.562;2023-02-01T06:04:46;98586.03;;;19.96;36.28
73692;BME280;61996;49.910;35.562;2023-02-01T06:07:49;98580.38;;;19.91;36.43
73692;BME280;61996;49.910;35.562;2023-02-01T06:10:58;98582.53;;;19.87;36.49
73692;BME280;61996;49.910;35.562;2023-02-01T06:14:01;98583.06;;;19.83;36.40
73692;BME280;61996;49.910;35.562;2023-02-01T06:17:03;98581.06;;;19.77;36.50
73692;BME280;61996;49.910;35.562;2023-02-01T06:20:08;98583.75;;;19.77;36.63
73692;BME280;61996;49.910;35.562;2023-02-01T06:23:12;98580.56;;;19.73;36.65
73692;BME280;61996;49.910;35.562;2023-02-01T06:26:16;98576.41;;;19.70;36.78
73692;BME280;61996;49.910;35.562;2023-02-01T06:29:19;98583.91;;;19.67;36.80
73692;BME280;61996;49.910;35.562;2023-02-01T06:32:22;98587.25;;;19.69;36.56
73692;BME280;61996;49.910;35.562;2023-02-01T06:35:25;98577.59;;;19.68;36.71
73692;BME280;61996;49.910;35.562;2023-02-01T08:15:01;98577.25;;;18.39;38.10
73692;BME280;61996;49.910;35.562;2023-02-01T08:18:04;98574.59;;;18.47;37.87
73692;BME280;61996;49.910;35.562;2023-02-01T08:21:07;98584.31;;;18.65;37.59
73692;BME280;61996;49.910;35.562;2023-02-01T08:24:14;98584.72;;;18.78;37.06
73692;BME280;61996;49.910;35.562;2023-02-01T08:27:17;98579.88;;;18.89;37.09
73692;BME280;61996;49.910;35.562;2023-02-01T08:30:21;98595.06;;;19.05;37.07
73692;BME280;61996;49.910;35.562;2023-02-01T08:33:24;98581.41;;;19.08;36.64
73692;BME280;61996;49.910;35.562;2023-02-01T08:36:28;98588.41;;;19.17;36.81
73692;BME280;61996;49.910;35.562;2023-02-01T08:39:31;98572.28;;;19.27;36.55
73692;BME280;61996;49.910;35.562;2023-02-01T08:42:34;98574.59;;;19.30;36.42
73692;BME280;61996;49.910;35.562;2023-02-01T08:45:56;98571.25;;;19.28;36.64
73692;BME280;61996;49.910;35.562;2023-02-01T08:48:59;98563.25;;;19.36;36.54
73692;BME280;61996;49.910;35.562;2023-02-01T08:52:02;98559.59;;;19.37;36.53
73692;BME280;61996;49.910;35.562;2023-02-01T08:55:16;98555.25;;;19.44;36.47
73692;BME280;61996;49.910;35.562;2023-02-01T08:58:18;98549.75;;;19.46;36.34
73692;BME280;61996;49.910;35.562;2023-02-01T09:01:24;98545.56;;;19.52;36.29
73692;BME280;61996;49.910;35.562;2023-02-01T09:04:27;98549.06;;;19.52;36.16
73692;BME280;61996;49.910;35.562;2023-02-01T09:07:30;98553.09;;;19.48;36.33
73692;BME280;61996;49.910;35.562;2023-02-01T09:10:33;98565.06;;;19.52;36.35
73692;BME280;61996;49.910;35.562;2023-02-01T09:13:37;98570.41;;;19.60;36.27
73692;BME280;61996;49.910;35.562;2023-02-01T09:16:41;98563.09;;;19.54;36.16
73692;BME280;61996;49.910;35.562;2023-02-01T09:19:44;98551.72;;;19.52;36.38
73692;BME280;61996;49.910;35.562;2023-02-01T09:22:47;98556.41;;;19.66;36.17
73692;BME280;61996;49.910;35.562;2023-02-01T09:25:50;98552.91;;;19.66;36.03
73692;BME280;61996;49.910;35.562;2023-02-01T09:28:53;98548.75;;;19.63;36.20
73692;BME280;61996;49.910;35.562;2023-02-01T09:31:57;98556.41;;;19.66;36.17
73692;BME280;61996;49.910;35.562;2023-02-01T09:35:05;98550.75;;;19.69;36.06
73692;BME280;61996;49.910;35.562;2023-02-01T09:38:08;98551.03;;;19.75;35.90
73692;BME280;61996;49.910;35.562;2023-02-01T09:41:15;98551.03;;;19.75;35.91
73692;BME280;61996;49.910;35.562;2023-02-01T09:44:31;98542.22;;;19.82;35.89
73692;BME280;61996;49.910;35.562;2023-02-01T09:47:47;98538.03;;;19.80;35.88
73692;BME280;61996;49.910;35.562;2023-02-01T09:50:53;98533.34;;;19.82;35.81
73692;BME280;61996;49.910;35.562;2023-02-01T09:53:58;98528.00;;;19.90;35.78
73692;BME280;61996;49.910;35.562;2023-02-01T09:57:03;98535.50;;;19.86;35.96
73692;BME280;61996;49.910;35.562;2023-02-01T10:00:12;98527.50;;;19.86;35.92
73692;BME280;61996;49.910;35.562;2023-02-01T10:03:18;98525.66;;;19.87;35.91
73692;BME280;61996;49.910;35.562;2023-02-01T10:06:27;98517.66;;;19.87;36.00
73692;BME280;61996;49.910;35.562;2023-02-01T10:09:44;98512.00;;;19.90;35.88
73692;BME280;61996;49.910;35.562;2023-02-01T10:16:16;98516.66;;;19.96;36.11
73692;BME280;61996;49.910;35.562;2023-02-01T10:19:27;98514.97;;;19.95;35.84
73692;BME280;61996;49.910;35.562;2023-02-01T10:22:37;98508.25;;;20.07;35.77
73692;BME280;61996;49.910;35.562;2023-02-01T10:26:04;98503.41;;;20.03;35.86
73692;BME280;61996;49.910;35.562;2023-02-01T10:29:12;98497.28;;;19.94;36.08
73692;BME280;61996;49.910;35.562;2023-02-01T10:32:18;98492.59;;;20.04;35.80
73692;BME280;61996;49.910;35.562;2023-02-01T10:35:26;98484.28;;;19.99;36.03
73692;BME280;61996;49.910;35.562;2023-02-01T10:38:30;98496.59;;;20.00;36.12
73692;BME280;61996;49.910;35.562;2023-02-01T10:41:34;98484.44;;;19.97;36.21
73692;BME280;61996;49.910;35.562;2023-02-01T10:44:37;98489.94;;;20.04;36.11
73692;BME280;61996;49.910;35.562;2023-02-01T10:47:44;98491.41;;;20.07;35.50
73692;BME280;61996;49.910;35.562;2023-02-01T10:50:51;98493.06;;;20.08;36.06
73692;BME280;61996;49.910;35.562;2023-02-01T10:53:57;98490.22;;;20.09;36.10
73692;BME280;61996;49.910;35.562;2023-02-01T10:57:00;98492.38;;;20.14;35.87
73692;BME280;61996;49.910;35.562;2023-02-01T11:00:06;98496.22;;;20.11;35.91
73692;BME280;61996;49.910;35.562;2023-02-01T11:03:27;98501.38;;;20.13;35.88
73692;BME280;61996;49.910;35.562;2023-02-01T11:06:41;98496.03;;;20.13;35.86
73692;BME280;61996;49.910;35.562;2023-02-01T11:09:48;98500.19;;;20.15;35.92
73692;BME280;61996;49.910;35.562;2023-02-01T11:12:53;98504.53;;;20.16;35.88
73692;BME280;61996;49.910;35.562;2023-02-01T11:15:56;98507.47;;;20.30;35.66
73692;BME280;61996;49.910;35.562;2023-02-01T11:18:59;98504.38;;;20.18;35.78
73692;BME280;61996;49.910;35.562;2023-02-01T11:22:03;98501.16;;;20.22;35.70
73692;BME280;61996;49.910;35.562;2023-02-01T11:25:08;98507.72;;;20.43;35.47
73692;BME280;61996;49.910;35.562;2023-02-01T11:28:11;98507.13;;;20.33;35.42
73692;BME280;61996;49.910;35.562;2023-02-01T11:31:14;98504.78;;;20.30;35.34
73692;BME280;61996;49.910;35.562;2023-02-01T11:34:18;98507.31;;;20.31;35.28
73692;BME280;61996;49.910;35.562;2023-02-01T11:37:25;98501.97;;;20.31;35.33
73692;BME280;61996;49.910;35.562;2023-02-01T11:40:33;98506.16;;;20.25;35.44
73692;BME280;61996;49.910;35.562;2023-02-01T11:43:37;98511.97;;;20.29;35.37
73692;BME280;61996;49.910;35.562;2023-02-01T11:46:40;98509.84;;;20.24;35.49
73692;BME280;61996;49.910;35.562;2023-02-01T11:49:43;98499.81;;;20.26;35.50
73692;BME280;61996;49.910;35.562;2023-02-01T11:52:54;98504.16;;;20.27;35.42
73692;BME280;61996;49.910;35.562;2023-02-01T11:56:03;98511.97;;;20.29;35.39
73692;BME280;61996;49.910;35.562;2023-02-01T11:59:13;98512.81;;;20.30;35.26
73692;BME280;61996;49.910;35.562;2023-02-01T12:02:32;98507.47;;;20.30;35.46
73692;BME280;61996;49.910;35.562;2023-02-01T12:05:41;98512.97;;;20.28;35.54
73692;BME280;61996;49.910;35.562;2023-02-01T12:09:02;98510.13;;;20.30;35.35
73692;BME280;61996;49.910;35.562;2023-02-01T12:12:12;98512.81;;;20.30;35.43
73692;BME280;61996;49.910;35.562;2023-02-01T12:15:22;98505.06;;;20.12;35.97
73692;BME280;61996;49.910;35.562;2023-02-01T12:18:44;98507.97;;;20.33;35.33
73692;BME280;61996;49.910;35.562;2023-02-01T12:21:54;98507.66;;;20.28;35.84
73692;BME280;61996;49.910;35.562;2023-02-01T12:25:23;98506.66;;;20.60;35.40
73692;BME280;61996;49.910;35.562;2023-02-01T12:31:53;98504.75;;;20.46;35.74
73692;BME280;61996;49.910;35.562;2023-02-01T12:35:08;98500.72;;;20.42;35.97
73692;BME280;61996;49.910;35.562;2023-02-01T12:38:24;98498.06;;;20.42;36.02
73692;BME280;61996;49.910;35.562;2023-02-01T12:41:43;98505.09;;;20.35;36.63
73692;BME280;61996;49.910;35.562;2023-02-01T12:44:49;98506.31;;;20.32;36.60
73692;BME280;61996;49.910;35.562;2023-02-01T12:47:54;98505.16;;;20.26;36.48
73692;BME280;61996;49.910;35.562;2023-02-01T12:50:59;98512.81;;;20.30;36.53
73692;BME280;61996;49.910;35.562;2023-02-01T12:54:04;98513.84;;;20.20;36.73
73692;BME280;61996;49.910;35.562;2023-02-01T12:57:15;98513.53;;;20.15;36.65
73692;BME280;61996;49.910;35.562;2023-02-01T13:00:22;98516.16;;;20.32;36.38
73692;BME280;61996;49.910;35.562;2023-02-01T13:03:29;98508.75;;;20.11;36.48
73692;BME280;61996;49.910;35.562;2023-02-01T13:06:35;98505.97;;;19.96;36.78
73692;BME280;61996;49.910;35.562;2023-02-01T13:09:41;98504.13;;;19.96;36.72
73692;BME280;61996;49.910;35.562;2023-02-01T13:12:50;98514.97;;;19.95;36.77
73692;BME280;61996;49.910;35.562;2023-02-01T13:15:56;98512.00;;;19.90;36.66
73692;BME280;61996;49.910;35.562;2023-02-01T13:19:02;98517.84;;;19.85;36.70
73692;BME280;61996;49.910;35.562;2023-02-01T13:22:09;98511.03;;;19.83;36.68
73692;BME280;61996;49.910;35.562;2023-02-01T13:25:13;98504.34;;;19.79;36.53
73692;BME280;61996;49.910;35.562;2023-02-01T13:28:20;98499.84;;;19.79;36.54
73692;BME280;61996;49.910;35.562;2023-02-01T13:41:39;98505.63;;;19.99;36.00
73692;BME280;61996;49.910;35.562;2023-02-01T13:44:45;98498.75;;;20.05;36.00
73692;BME280;61996;49.910;35.562;2023-02-01T13:47:49;98503.75;;;20.08;35.92
73692;BME280;61996;49.910;35.562;2023-02-01T13:50:55;98504.25;;;20.11;35.76
73692;BME280;61996;49.910;35.562;2023-02-01T13:53:58;98508.56;;;20.12;35.87
73692;BME280;61996;49.910;35.562;2023-02-01T13:57:02;98498.53;;;20.14;35.73
73692;BME280;61996;49.910;35.562;2023-02-01T14:00:08;98504.19;;;20.19;35.30
73692;BME280;61996;49.910;35.562;2023-02-01T14:03:16;98498.19;;;20.17;35.64
73692;BME280;61996;49.910;35.562;2023-02-01T14:06:40;98518.56;;;20.18;35.62
73692;BME280;61996;49.910;35.562;2023-02-01T14:09:44;98518.19;;;20.21;35.52
73692;BME280;61996;49.910;35.562;2023-02-01T14:12:47;98516.34;;;20.22;35.53
73692;BME280;61996;49.910;35.562;2023-02-01T14:19:20;98521.16;;;20.26;35.50
73692;BME280;61996;49.910;35.562;2023-02-01T14:22:32;98517.03;;;20.24;35.64
73692;BME280;61996;49.910;35.562;2023-02-01T14:25:36;98514.00;;;20.27;35.49
73692;BME280;61996;49.910;35.562;2023-02-01T14:28:41;98515.47;;;20.30;35.50
73692;BME280;61996;49.910;35.562;2023-02-01T14:31:51;98517.69;;;20.26;35.55
73692;BME280;61996;49.910;35.562;2023-02-01T14:34:57;98518.63;;;20.33;35.22
73692;BME280;61996;49.910;35.562;2023-02-01T14:38:01;98526.81;;;20.32;35.41
73692;BME280;61996;49.910;35.562;2023-02-01T14:41:13;98533.00;;;20.32;35.35
73692;BME280;61996;49.910;35.562;2023-02-01T14:44:23;98526.66;;;20.33;35.22
73692;BME280;61996;49.910;35.562;2023-02-01T14:47:27;98533.81;;;20.33;35.32
73692;BME280;61996;49.910;35.562;2023-02-01T14:50:33;98541.47;;;20.36;35.23
73692;BME280;61996;49.910;35.562;2023-02-01T14:53:38;98548.66;;;20.35;35.25
73692;BME280;61996;49.910;35.562;2023-02-01T14:56:44;98544.16;;;20.36;35.30
73692;BME280;61996;49.910;35.562;2023-02-01T14:59:48;98546.63;;;20.37;35.20
73692;BME280;61996;49.910;35.562;2023-02-01T15:02:52;98553.81;;;20.37;35.22
73692;BME280;61996;49.910;35.562;2023-02-01T15:05:57;98561.00;;;20.36;35.24
73692;BME280;61996;49.910;35.562;2023-02-01T15:09:03;98558.19;;;20.38;35.24
73692;BME280;61996;49.910;35.562;2023-02-01T15:12:14;98561.50;;;20.40;35.22
73692;BME280;61996;49.910;35.562;2023-02-01T15:15:19;98569.19;;;20.35;35.44
73692;BME280;61996;49.910;35.562;2023-02-01T15:18:23;98562.66;;;20.37;35.23
73692;BME280;61996;49.910;35.562;2023-02-01T15:21:27;98563.34;;;20.39;35.18
73692;BME280;61996;49.910;35.562;2023-02-01T15:24:31;98566.34;;;20.36;35.24
73692;BME280;61996;49.910;35.562;2023-02-01T15:27:34;98563.50;;;20.38;35.19
73692;BME280;61996;49.910;35.562;2023-02-01T15:30:37;98567.66;;;20.40;35.23
73692;BME280;61996;49.910;35.562;2023-02-01T15:33:40;98560.66;;;20.39;35.19
73692;BME280;61996;49.910;35.562;2023-02-01T15:37:05;98571.81;;;20.43;35.00
73692;BME280;61996;49.910;35.562;2023-02-01T15:40:18;98560.31;;;20.42;35.15
73692;BME280;61996;49.910;35.562;2023-02-01T15:43:23;98570.16;;;20.42;35.00
73692;BME280;61996;49.910;35.562;2023-02-01T15:46:31;98568.13;;;20.44;35.12
73692;BME280;61996;49.910;35.562;2023-02-01T15:49:36;98567.66;;;20.40;35.87
73692;BME280;61996;49.910;35.562;2023-02-01T15:52:41;98571.66;;;20.44;35.63
73692;BME280;61996;49.910;35.562;2023-02-01T15:55:44;98565.16;;;20.47;35.95
73692;BME280;61996;49.910;35.562;2023-02-01T15:58:50;98570.69;;;20.45;36.16
73692;BME280;61996;49.910;35.562;2023-02-01T16:01:54;98568.66;;;20.47;35.66
73692;BME280;61996;49.910;35.562;2023-02-01T16:04:57;98567.41;;;20.66;35.50
73692;BME280;61996;49.910;35.562;2023-02-01T16:08:03;98565.13;;;20.55;35.52
73692;BME280;61996;49.910;35.562;2023-02-01T16:11:23;98569.94;;;20.60;35.47
73692;BME280;61996;49.910;35.562;2023-02-01T16:14:27;98559.94;;;20.53;35.77
73692;BME280;61996;49.910;35.562;2023-02-01T16:17:30;98565.94;;;20.56;35.29
73692;BME280;61996;49.910;35.562;2023-02-01T16:20:33;98564.09;;;20.56;35.56
73692;BME280;61996;49.910;35.562;2023-02-01T16:23:38;98561.44;;;20.56;35.63
73692;BME280;61996;49.910;35.562;2023-02-01T16:26:40;98564.41;;;20.61;35.26
73692;BME280;61996;49.910;35.562;2023-02-01T16:29:43;98563.91;;;20.58;35.54
73692;BME280;61996;49.910;35.562;2023-02-01T16:32:46;98565.44;;;20.60;35.46
73692;BME280;61996;49.910;35.562;2023-02-01T16:35:49;98571.53;;;20.69;35.37
73692;BME280;61996;49.910;35.562;2023-02-01T16:38:54;98563.34;;;20.70;35.27
73692;BME280;61996;49.910;35.562;2023-02-01T16:41:57;98565.44;;;20.60;35.29
73692;BME280;61996;49.910;35.562;2023-02-01T16:45:02;98556.22;;;20.63;35.42
73692;BME280;61996;49.910;35.562;2023-02-01T16:48:05;98567.91;;;20.62;35.27
73692;BME280;61996;49.910;35.562;2023-02-01T16:51:10;98558.44;;;20.59;35.36
73692;BME280;61996;49.910;35.562;2023-02-01T16:54:15;98559.72;;;20.63;35.45
73692;BME280;61996;49.910;35.562;2023-02-01T16:57:18;98552.06;;;20.60;35.36
73692;BME280;61996;49.910;35.562;2023-02-01T17:00:23;98562.56;;;20.62;35.52
73692;BME280;61996;49.910;35.562;2023-02-01T17:03:28;98564.22;;;20.63;35.58
73692;BME280;61996;49.910;35.562;2023-02-01T17:06:31;98568.09;;;20.60;35.45
73692;BME280;61996;49.910;35.562;2023-02-01T17:09:36;98567.28;;;20.60;35.56
73692;BME280;61996;49.910;35.562;2023-02-01T17:12:39;98559.41;;;20.58;35.44
73692;BME280;61996;49.910;35.562;2023-02-01T17:15:47;98559.94;;;20.53;35.57
73692;BME280;61996;49.910;35.562;2023-02-01T17:18:53;98564.66;;;20.51;35.71
73692;BME280;61996;49.910;35.562;2023-02-01T17:21:57;98563.50;;;20.46;35.74
73692;BME280;61996;49.910;35.562;2023-02-01T17:25:01;98560.97;;;20.44;35.80
73692;BME280;61996;49.910;35.562;2023-02-01T17:28:07;98555.84;;;20.35;35.91
73692;BME280;61996;49.910;35.562;2023-02-01T17:31:11;98554.00;;;20.35;35.65
73692;BME280;61996;49.910;35.562;2023-02-01T17:34:17;98568.84;;;20.38;35.83
73692;BME280;61996;49.910;35.562;2023-02-01T17:37:22;98571.41;;;20.23;36.36
73692;BME280;61996;49.910;35.562;2023-02-01T17:40:28;98574.78;;;20.09;36.36
73692;BME280;61996;49.910;35.562;2023-02-01T17:43:32;98578.31;;;20.01;36.61
73692;BME280;61996;49.910;35.562;2023-02-01T17:46:35;98576.84;;;19.98;36.37
73692;BME280;61996;49.910;35.562;2023-02-01T17:49:37;98568.50;;;19.93;36.57
73692;BME280;61996;49.910;35.562;2023-02-01T17:52:40;98573.66;;;19.95;36.42
73692;BME280;61996;49.910;35.562;2023-02-01T17:55:45;98564.69;;;19.88;36.40
73692;BME280;61996;49.910;35.562;2023-02-01T17:58:48;98573.22;;;19.83;36.44
73692;BME280;61996;49.910;35.562;2023-02-01T18:01:51;98567.06;;;19.83;36.52
73692;BME280;61996;49.910;35.562;2023-02-01T18:05:01;98561.69;;;19.91;36.28
73692;BME280;61996;49.910;35.562;2023-02-01T18:08:05;98563.34;;;19.92;36.33
73692;BME280;61996;49.910;35.562;2023-02-01T18:11:11;98556.50;;;19.97;36.23
73692;BME280;61996;49.910;35.562;2023-02-01T18:14:14;98561.47;;;20.01;36.15
73692;BME280;61996;49.910;35.562;2023-02-01T18:17:17;98568.28;;;20.11;35.95